Big Piney, Wyoming
Current Conditions -  °F | °C
As of 10:15 PM on Friday 28 Nov 2014 (Local Time) from KPNA Reporting Station
Overcast Overcast  
Wind Chill: 27°   Ceiling: 10000
Heat Index: 36°   Visibility: 10mi
Dew Point: 16°   Wind: 14mph
Humidity: 44%   Direction: 210°SSW
Pressure: 29.76"   Gusts: 20mph
Location:  42.54°N, 110.11°W
Report Text: KPNA 290515Z AUTO 21012G17KT 10SM BKN100 OVC120 02/M09 A2976 RMK AO2
Loading
Personal Weather Stations






























Interactive Weather Map New forecast layout! Learn more

10-Day Weather Forecast

Advertisements
Track Severe Weather on mobile